Atalissa, Iowa
Current Conditions -  °F | °C
As of 1:55 PM on Monday 22 Dec 2014 (Local Time) from KMUT Reporting Station
Haze Haze  
Wind Chill: 34°   Ceiling: 500
Heat Index: 39°   Visibility: 1.5mi
Dew Point: 37°   Wind: 7mph
Humidity: 93%   Direction: 130°SE
Pressure: 29.58"   Gusts: 14mph
Location:  41.57°N, 91.17°W
Report Text: KMUT 221955Z AUTO 13006G12KT 1 1/2SM BR OVC005 04/03 A2958 RMK AO2
Loading
Personal Weather Stations






























Interactive Weather Map New forecast layout! Learn more

10-Day Weather Forecast

Advertisements
Track Severe Weather on mobile